createdAt,value
2022-09-20T00:01:29.307Z,21.20
2022-09-20T00:03:57.802Z,21.20
2022-09-20T00:06:31.632Z,21.30
2022-09-20T00:08:59.635Z,21.20
2022-09-20T00:11:28.603Z,21.30
2022-09-20T00:13:56.444Z,21.20
2022-09-20T00:16:28.368Z,21.30
2022-09-20T00:18:56.971Z,21.30
2022-09-20T00:21:25.487Z,21.30
2022-09-20T00:23:52.417Z,21.30
2022-09-20T00:26:19.760Z,21.40
2022-09-20T00:28:47.249Z,21.40
2022-09-20T00:31:14.952Z,21.40
2022-09-20T00:34:00.520Z,21.30
2022-09-20T00:36:29.888Z,21.40
2022-09-20T00:38:57.190Z,21.40
2022-09-20T00:41:24.118Z,21.30
2022-09-20T00:43:51.040Z,21.30
2022-09-20T00:46:20.718Z,21.30
2022-09-20T00:48:48.784Z,21.30
2022-09-20T00:51:18.023Z,21.40
2022-09-20T00:53:47.714Z,21.40
2022-09-20T00:56:17.806Z,21.40
2022-09-20T00:58:48.986Z,21.40
2022-09-20T01:01:15.889Z,21.40
2022-09-20T01:03:43.299Z,21.40
2022-09-20T01:06:11.781Z,21.30
2022-09-20T01:08:39.074Z,21.20
2022-09-20T01:11:05.934Z,21.20
2022-09-20T01:13:32.712Z,21.20
2022-09-20T01:16:01.252Z,21.10
2022-09-20T01:18:30.027Z,21.20
2022-09-20T01:20:56.864Z,21.10
2022-09-20T01:23:35.591Z,21.10
2022-09-20T01:26:17.542Z,21.20
2022-09-20T01:28:47.720Z,21.10
2022-09-20T01:31:25.563Z,21.10
2022-09-20T01:34:12.895Z,21.10
2022-09-20T01:36:42.313Z,21.10
2022-09-20T01:39:09.014Z,21.00
2022-09-20T01:41:46.019Z,20.90
2022-09-20T01:44:36.193Z,20.80
2022-09-20T01:47:06.952Z,20.80
2022-09-20T01:49:47.737Z,20.90
2022-09-20T01:52:23.611Z,20.90
2022-09-20T01:55:09.022Z,20.90
2022-09-20T01:57:58.603Z,20.80
2022-09-20T02:00:39.935Z,20.70
2022-09-20T02:03:09.747Z,20.80
2022-09-20T02:05:55.103Z,20.80
2022-09-20T02:08:40.614Z,20.90
2022-09-20T02:11:17.791Z,20.80
2022-09-20T02:13:53.418Z,20.80
2022-09-20T02:16:38.297Z,20.90
2022-09-20T02:19:05.161Z,20.90
2022-09-20T02:21:39.097Z,21.00
2022-09-20T02:24:14.940Z,21.00
2022-09-20T02:26:44.432Z,20.90
2022-09-20T02:29:25.558Z,21.00
2022-09-20T02:32:00.873Z,21.00
2022-09-20T02:34:46.559Z,21.00
2022-09-20T02:37:36.865Z,20.90
2022-09-20T02:40:06.707Z,20.90
2022-09-20T02:42:38.693Z,20.90
2022-09-20T02:45:11.761Z,20.90
2022-09-20T02:47:39.854Z,20.90
2022-09-20T02:50:25.079Z,20.90
2022-09-20T02:52:57.337Z,20.90
2022-09-20T02:55:27.175Z,20.90
2022-09-20T02:58:20.037Z,20.90
2022-09-20T03:00:53.799Z,20.80
2022-09-20T03:03:33.021Z,20.80
2022-09-20T03:06:08.931Z,20.80
2022-09-20T03:08:44.787Z,20.80
2022-09-20T03:11:30.236Z,20.90
2022-09-20T03:14:09.760Z,20.90
2022-09-20T03:16:36.594Z,20.90
2022-09-20T03:19:06.825Z,21.00
2022-09-20T03:21:59.612Z,21.00
2022-09-20T03:24:37.391Z,21.00
2022-09-20T03:27:17.511Z,21.00
2022-09-20T03:30:04.034Z,21.00
2022-09-20T03:32:53.948Z,20.90
2022-09-20T03:35:23.378Z,20.90
2022-09-20T03:37:57.927Z,20.90
2022-09-20T03:40:32.093Z,20.90
2022-09-20T03:43:04.759Z,20.90
2022-09-20T03:45:31.691Z,20.90
2022-09-20T03:47:58.505Z,21.00
2022-09-20T03:50:34.325Z,20.90
2022-09-20T03:53:13.192Z,20.90
2022-09-20T03:56:03.192Z,20.90
2022-09-20T03:58:36.369Z,20.90
2022-09-20T04:01:24.489Z,20.90
2022-09-20T04:03:57.218Z,20.90
2022-09-20T04:06:35.526Z,20.90
2022-09-20T04:09:24.937Z,20.90
2022-09-20T04:12:10.331Z,20.90
2022-09-20T04:14:55.671Z,20.80
2022-09-20T04:17:27.545Z,20.80
2022-09-20T04:20:01.862Z,20.80
2022-09-20T04:22:29.602Z,20.80
2022-09-20T04:25:13.171Z,20.80
2022-09-20T04:28:02.120Z,20.80
2022-09-20T04:30:30.953Z,20.80
2022-09-20T04:33:13.478Z,20.80
2022-09-20T04:35:58.709Z,20.90
2022-09-20T04:38:26.433Z,20.90
2022-09-20T04:41:00.143Z,20.80
2022-09-20T04:43:33.077Z,20.80
2022-09-20T04:46:02.616Z,20.90
2022-09-20T04:48:32.421Z,20.90
2022-09-20T04:51:27.150Z,20.90
2022-09-20T04:54:12.563Z,20.80
2022-09-20T04:56:45.104Z,20.90
2022-09-20T04:59:28.896Z,20.90
2022-09-20T05:02:10.829Z,20.90
2022-09-20T05:04:56.202Z,20.90
2022-09-20T05:07:26.006Z,20.90
2022-09-20T05:10:11.441Z,20.80
2022-09-20T05:12:56.917Z,20.70
2022-09-20T05:15:29.380Z,20.70
2022-09-20T05:18:10.125Z,20.60
2022-09-20T05:20:52.269Z,20.60
2022-09-20T05:23:39.647Z,20.40
2022-09-20T05:26:19.144Z,20.40
2022-09-20T05:28:45.898Z,20.40
2022-09-20T05:31:20.536Z,20.40
2022-09-20T05:33:53.426Z,20.30
2022-09-20T05:36:39.574Z,20.40
2022-09-20T05:39:29.859Z,20.50
2022-09-20T05:41:59.037Z,20.50
2022-09-20T05:44:31.212Z,20.70
2022-09-20T05:47:18.894Z,20.70
2022-09-20T05:49:55.152Z,20.80
2022-09-20T05:52:41.370Z,20.80
2022-09-20T05:55:14.169Z,20.90
2022-09-20T05:57:40.902Z,20.90
2022-09-20T06:00:10.794Z,21.00
2022-09-20T06:02:37.538Z,21.10
2022-09-20T06:05:14.245Z,21.10
2022-09-20T06:07:56.159Z,21.10
2022-09-20T06:10:31.746Z,21.20
2022-09-20T06:12:58.447Z,21.30
2022-09-20T06:15:34.386Z,21.40
2022-09-20T06:18:16.301Z,21.50
2022-09-20T06:20:58.243Z,21.50
2022-09-20T06:23:25.231Z,21.60
2022-09-20T06:25:56.222Z,21.70
2022-09-20T06:28:25.755Z,21.80
2022-09-20T06:30:53.971Z,21.70
2022-09-20T06:33:21.665Z,21.80
2022-09-20T06:35:59.241Z,21.90
2022-09-20T06:39:02.469Z,21.90
2022-09-20T06:41:31.124Z,21.90
2022-09-20T06:43:59.130Z,22.00
2022-09-20T06:46:29.677Z,21.90
2022-09-20T06:48:56.997Z,22.00
2022-09-20T06:51:25.871Z,22.10
2022-09-20T06:53:53.082Z,22.10
2022-09-20T06:56:21.214Z,22.20
2022-09-20T06:58:48.110Z,22.30
2022-09-20T07:01:20.005Z,22.30
2022-09-20T07:03:56.094Z,22.40
2022-09-20T07:06:22.824Z,22.50
2022-09-20T07:08:49.527Z,22.50
2022-09-20T07:11:17.074Z,22.50
2022-09-20T07:13:44.284Z,22.50
2022-09-20T07:16:12.916Z,22.50
2022-09-20T07:18:41.369Z,22.60
2022-09-20T07:21:15.223Z,22.60
2022-09-20T07:23:41.934Z,22.60
2022-09-20T07:26:17.220Z,22.60
2022-09-20T07:28:44.033Z,22.60
2022-09-20T07:31:10.735Z,22.60
2022-09-20T07:33:37.621Z,22.70
2022-09-20T07:36:04.495Z,22.60
2022-09-20T07:38:31.210Z,22.50
2022-09-20T07:40:59.748Z,22.40
2022-09-20T07:43:26.747Z,22.30
2022-09-20T07:45:56.055Z,22.30
2022-09-20T07:48:25.392Z,22.30
2022-09-20T07:50:56.667Z,22.20
2022-09-20T07:53:23.864Z,22.30
2022-09-20T07:56:01.160Z,22.40
2022-09-20T07:58:28.691Z,22.30
2022-09-20T08:00:56.597Z,22.30
2022-09-20T08:03:23.733Z,22.40
2022-09-20T08:05:50.733Z,22.40
2022-09-20T08:08:18.347Z,22.50
2022-09-20T08:10:46.259Z,22.50
2022-09-20T08:16:04.793Z,22.50
2022-09-20T08:18:31.952Z,22.50
2022-09-20T08:21:06.149Z,22.50
2022-09-20T08:23:36.391Z,22.50
2022-09-20T08:26:03.454Z,22.60
2022-09-20T08:28:31.553Z,22.70
2022-09-20T08:31:02.520Z,22.70
2022-09-20T08:33:29.492Z,22.70
2022-09-20T08:35:57.744Z,22.80
2022-09-20T08:41:17.613Z,22.80
2022-09-20T08:43:55.880Z,22.90
2022-09-20T08:46:26.051Z,22.90
2022-09-20T08:48:52.964Z,23.00
2022-09-20T08:51:23.429Z,23.00
2022-09-20T08:53:52.429Z,23.00
2022-09-20T08:56:20.095Z,23.00
2022-09-20T08:58:47.367Z,23.10
2022-09-20T09:01:24.826Z,23.10
2022-09-20T09:03:52.451Z,23.20
2022-09-20T09:06:20.674Z,23.10
2022-09-20T09:08:52.104Z,23.10
2022-09-20T09:11:19.735Z,23.20
2022-09-20T09:14:07.132Z,23.20
2022-09-20T09:16:35.683Z,23.30
2022-09-20T09:19:21.417Z,23.20
2022-09-20T09:21:48.094Z,23.20
2022-09-20T09:24:18.420Z,23.20
2022-09-20T09:26:46.419Z,23.30
2022-09-20T09:29:13.165Z,23.30
2022-09-20T09:31:40.043Z,23.30
2022-09-20T09:34:42.477Z,23.30
2022-09-20T09:37:23.253Z,23.20
2022-09-20T09:40:12.993Z,23.30
2022-09-20T09:42:48.755Z,23.30
2022-09-20T09:45:27.055Z,23.20
2022-09-20T09:47:54.838Z,23.20
2022-09-20T09:50:22.855Z,23.30
2022-09-20T09:53:00.151Z,23.30
2022-09-20T09:55:43.413Z,23.30
2022-09-20T09:58:16.712Z,23.30
2022-09-20T10:00:46.725Z,23.30
2022-09-20T10:03:26.012Z,23.20
2022-09-20T10:05:52.818Z,23.20
2022-09-20T10:08:38.204Z,23.20
2022-09-20T10:11:23.788Z,23.20
2022-09-20T10:13:50.510Z,23.10
2022-09-20T10:16:36.089Z,23.00
2022-09-20T10:19:22.039Z,23.00
2022-09-20T10:22:08.338Z,23.00
2022-09-20T10:24:55.211Z,22.90
2022-09-20T10:27:24.676Z,23.00
2022-09-20T10:30:14.701Z,22.90
2022-09-20T10:32:49.964Z,22.90
2022-09-20T10:35:24.816Z,22.90
2022-09-20T10:38:10.139Z,23.00
2022-09-20T10:40:58.607Z,23.00
2022-09-20T10:43:35.974Z,22.90
2022-09-20T10:49:18.198Z,22.80
2022-09-20T10:51:52.076Z,22.70
2022-09-20T10:54:38.107Z,22.80
2022-09-20T10:57:28.654Z,22.80
2022-09-20T10:59:55.352Z,22.80
2022-09-20T11:02:34.426Z,22.80
2022-09-20T11:05:26.351Z,22.70
2022-09-20T11:07:53.248Z,22.70
2022-09-20T11:10:25.502Z,22.70
2022-09-20T11:13:00.618Z,22.70
2022-09-20T11:15:30.372Z,22.70
2022-09-20T11:18:02.635Z,22.70
2022-09-20T11:20:35.256Z,22.80
2022-09-20T11:23:06.447Z,22.70
2022-09-20T11:25:56.502Z,22.80
2022-09-20T11:28:42.098Z,22.80
2022-09-20T11:31:30.331Z,22.80
2022-09-20T11:34:03.310Z,22.80
2022-09-20T11:36:39.445Z,22.70
2022-09-20T11:39:17.382Z,22.80
2022-09-20T11:41:44.845Z,22.80
2022-09-20T11:44:13.969Z,22.70
2022-09-20T11:46:47.931Z,22.70
2022-09-20T11:49:27.253Z,22.70
2022-09-20T11:52:05.850Z,22.70
2022-09-20T11:55:07.803Z,22.70
2022-09-20T11:57:34.675Z,22.80
2022-09-20T12:00:05.998Z,22.80
2022-09-20T12:02:36.675Z,22.70
2022-09-20T12:05:06.969Z,22.70
2022-09-20T12:07:39.752Z,22.60
2022-09-20T12:10:21.990Z,22.60
2022-09-20T12:12:51.239Z,22.60
2022-09-20T12:15:23.887Z,22.50
2022-09-20T12:17:51.304Z,22.60
2022-09-20T12:20:33.074Z,22.70
2022-09-20T12:23:32.031Z,22.80
2022-09-20T12:26:04.567Z,22.70
2022-09-20T12:28:34.354Z,22.70
2022-09-20T12:31:19.492Z,22.70
2022-09-20T12:34:15.607Z,22.70
2022-09-20T12:36:43.659Z,22.70
2022-09-20T12:39:17.589Z,22.60
2022-09-20T12:41:50.303Z,22.60
2022-09-20T12:44:25.839Z,22.60
2022-09-20T12:47:10.682Z,22.60
2022-09-20T12:50:18.887Z,22.60
2022-09-20T12:52:57.841Z,22.60
2022-09-20T12:55:27.421Z,22.70
2022-09-20T12:58:02.073Z,22.70
2022-09-20T13:00:32.013Z,22.70
2022-09-20T13:03:10.369Z,22.70
2022-09-20T13:05:39.385Z,22.70
2022-09-20T13:08:13.076Z,22.60
2022-09-20T13:10:50.527Z,22.60
2022-09-20T13:13:41.281Z,22.50
2022-09-20T13:16:16.366Z,22.50
2022-09-20T13:18:43.780Z,22.50
2022-09-20T13:21:11.152Z,22.50
2022-09-20T13:23:51.030Z,22.50
2022-09-20T13:26:21.178Z,22.60
2022-09-20T13:28:51.376Z,22.60
2022-09-20T13:31:21.053Z,22.60
2022-09-20T13:33:48.314Z,22.60
2022-09-20T13:36:15.209Z,22.60
2022-09-20T13:38:41.927Z,22.60
2022-09-20T13:41:13.011Z,22.70
2022-09-20T13:43:43.870Z,22.70
2022-09-20T13:46:17.135Z,22.60
2022-09-20T13:48:48.052Z,22.60
2022-09-20T13:51:19.040Z,22.60
2022-09-20T13:53:47.476Z,22.60
2022-09-20T13:56:32.167Z,22.50
2022-09-20T13:59:04.379Z,22.50
2022-09-20T14:01:32.521Z,22.50
2022-09-20T14:04:02.655Z,22.50
2022-09-20T14:06:29.814Z,22.50
2022-09-20T14:08:57.569Z,22.50
2022-09-20T14:11:27.202Z,22.40
2022-09-20T14:13:58.422Z,22.40
2022-09-20T14:16:29.789Z,22.40
2022-09-20T14:18:57.879Z,22.50
2022-09-20T14:21:26.447Z,22.50
2022-09-20T14:23:58.301Z,22.40
2022-09-20T14:26:27.739Z,22.40
2022-09-20T14:28:54.706Z,22.40
2022-09-20T14:31:24.318Z,22.40
2022-09-20T14:33:55.273Z,22.40
2022-09-20T14:36:23.739Z,22.50
2022-09-20T14:38:55.097Z,22.50
2022-09-20T14:41:27.888Z,22.50
2022-09-20T14:43:59.053Z,22.50
2022-09-20T14:46:30.774Z,22.50
2022-09-20T14:49:17.402Z,22.40
2022-09-20T14:51:44.990Z,22.40
2022-09-20T14:54:11.663Z,22.40
2022-09-20T14:56:40.105Z,22.50
2022-09-20T14:59:20.719Z,22.40
2022-09-20T15:02:13.814Z,22.40
2022-09-20T15:04:42.121Z,22.40
2022-09-20T15:07:12.788Z,22.40
2022-09-20T15:09:39.804Z,22.40
2022-09-20T15:12:11.252Z,22.40
2022-09-20T15:14:40.387Z,22.40
2022-09-20T15:17:07.341Z,22.40
2022-09-20T15:19:34.545Z,22.40
2022-09-20T15:22:01.265Z,22.40
2022-09-20T15:24:28.222Z,22.40
2022-09-20T15:26:55.121Z,22.40
2022-09-20T15:29:22.021Z,22.40
2022-09-20T15:31:48.894Z,22.50
2022-09-20T15:34:16.322Z,22.50
2022-09-20T15:36:43.271Z,22.50
2022-09-20T15:39:10.337Z,22.40
2022-09-20T15:41:37.604Z,22.40
2022-09-20T15:44:04.934Z,22.50
2022-09-20T15:46:32.199Z,22.40
2022-09-20T15:49:00.377Z,22.40
2022-09-20T15:51:27.862Z,22.40
2022-09-20T15:53:55.713Z,22.50
2022-09-20T15:56:23.906Z,22.50
2022-09-20T15:59:01.086Z,22.50
2022-09-20T16:01:36.943Z,22.50
2022-09-20T16:04:08.147Z,22.50
2022-09-20T16:06:34.936Z,22.50
2022-09-20T16:09:01.888Z,22.50
2022-09-20T16:11:28.624Z,22.50
2022-09-20T16:13:56.693Z,22.50
2022-09-20T16:16:24.210Z,22.60
2022-09-20T16:19:09.674Z,22.60
2022-09-20T16:21:37.593Z,22.60
2022-09-20T16:24:05.718Z,22.50
2022-09-20T16:26:33.193Z,22.60
2022-09-20T16:29:00.536Z,22.60
2022-09-20T16:31:34.799Z,22.50
2022-09-20T16:34:02.753Z,22.50
2022-09-20T16:36:30.214Z,22.50
2022-09-20T16:38:57.526Z,22.60
2022-09-20T16:41:25.935Z,22.50
2022-09-20T16:43:53.128Z,22.50
2022-09-20T16:46:20.646Z,22.50
2022-09-20T16:48:47.825Z,22.60
2022-09-20T16:51:15.006Z,22.50
2022-09-20T16:53:42.119Z,22.50
2022-09-20T16:56:18.470Z,22.50
2022-09-20T16:58:45.974Z,22.50
2022-09-20T17:01:12.793Z,22.50
2022-09-20T17:03:40.849Z,22.50
2022-09-20T17:06:08.359Z,22.50
2022-09-20T17:08:38.815Z,22.50
2022-09-20T17:11:09.530Z,22.40
2022-09-20T17:13:41.377Z,22.40
2022-09-20T17:16:15.610Z,22.40
2022-09-20T17:18:43.247Z,22.40
2022-09-20T17:21:16.880Z,22.40
2022-09-20T17:23:50.612Z,22.40
2022-09-20T17:26:27.374Z,22.50
2022-09-20T17:28:56.358Z,22.50
2022-09-20T17:31:25.295Z,22.50
2022-09-20T17:33:52.196Z,22.50
2022-09-20T17:36:20.109Z,22.50
2022-09-20T17:38:47.633Z,22.50
2022-09-20T17:41:18.177Z,22.50
2022-09-20T17:43:46.304Z,22.50
2022-09-20T17:46:17.625Z,22.50
2022-09-20T17:48:49.156Z,22.50
2022-09-20T17:51:19.383Z,22.50
2022-09-20T17:53:46.459Z,22.50
2022-09-20T17:56:13.792Z,22.50
2022-09-20T17:58:40.988Z,22.50
2022-09-20T18:01:12.608Z,22.40
2022-09-20T18:03:41.121Z,22.50
2022-09-20T18:06:12.149Z,22.40
2022-09-20T18:08:39.338Z,22.40
2022-09-20T18:11:07.252Z,22.40
2022-09-20T18:13:34.224Z,22.30
2022-09-20T18:16:01.012Z,22.30
2022-09-20T18:18:28.433Z,22.30
2022-09-20T18:20:55.185Z,22.30
2022-09-20T18:23:21.868Z,22.30
2022-09-20T18:26:07.302Z,22.30
2022-09-20T18:28:33.992Z,22.30
2022-09-20T18:31:04.234Z,22.30
2022-09-20T18:33:31.570Z,22.30
2022-09-20T18:36:02.089Z,22.20
2022-09-20T18:38:29.609Z,22.20
2022-09-20T18:41:03.042Z,22.20
2022-09-20T18:43:30.658Z,22.20
2022-09-20T18:45:57.948Z,22.20
2022-09-20T18:48:25.802Z,22.20
2022-09-20T18:50:58.364Z,22.10
2022-09-20T18:53:28.972Z,22.10
2022-09-20T18:55:56.118Z,22.10
2022-09-20T18:58:24.024Z,22.10
2022-09-20T19:00:55.955Z,22.20
2022-09-20T19:03:27.660Z,22.10
2022-09-20T19:05:57.948Z,22.00
2022-09-20T19:08:28.663Z,22.00
2022-09-20T19:11:00.976Z,22.00
2022-09-20T19:13:35.773Z,22.10
2022-09-20T19:16:10.264Z,22.10
2022-09-20T19:18:58.062Z,22.10
2022-09-20T19:21:27.666Z,22.10
2022-09-20T19:24:09.295Z,22.00
2022-09-20T19:26:38.755Z,22.00
2022-09-20T19:29:12.750Z,22.00
2022-09-20T19:31:39.675Z,22.00
2022-09-20T19:34:10.367Z,22.00
2022-09-20T19:36:43.502Z,21.90
2022-09-20T19:39:14.650Z,21.90
2022-09-20T19:41:41.340Z,22.00
2022-09-20T19:44:24.269Z,22.00
2022-09-20T19:46:51.033Z,21.90
2022-09-20T19:49:29.632Z,21.90
2022-09-20T19:51:57.787Z,21.90
2022-09-20T19:54:24.755Z,21.90
2022-09-20T19:56:55.649Z,21.90
2022-09-20T19:59:23.806Z,21.90
2022-09-20T20:01:50.872Z,21.90
2022-09-20T20:04:17.811Z,22.00
2022-09-20T20:07:02.915Z,22.00
2022-09-20T20:09:35.844Z,21.90
2022-09-20T20:12:14.952Z,21.90
2022-09-20T20:15:07.831Z,21.90
2022-09-20T20:17:40.226Z,21.80
2022-09-20T20:20:22.654Z,21.80
2022-09-20T20:23:08.102Z,21.70
2022-09-20T20:25:40.349Z,21.80
2022-09-20T20:28:07.757Z,21.80
2022-09-20T20:30:34.763Z,21.70
2022-09-20T20:33:04.232Z,21.70
2022-09-20T20:35:30.990Z,21.70
2022-09-20T20:37:57.827Z,21.60
2022-09-20T20:40:24.676Z,21.60
2022-09-20T20:43:02.229Z,21.60
2022-09-20T20:45:32.002Z,21.60
2022-09-20T20:47:59.128Z,21.60
2022-09-20T20:50:27.019Z,21.60
2022-09-20T20:52:57.329Z,21.60
2022-09-20T20:55:24.753Z,21.60
2022-09-20T20:57:58.480Z,21.50
2022-09-20T21:00:26.302Z,21.50
2022-09-20T21:02:59.968Z,21.50
2022-09-20T21:05:27.658Z,21.50
2022-09-20T21:07:54.940Z,21.60
2022-09-20T21:10:22.357Z,21.60
2022-09-20T21:12:53.117Z,21.60
2022-09-20T21:15:21.364Z,21.60
2022-09-20T21:17:54.094Z,21.60
2022-09-20T21:20:21.602Z,21.60
2022-09-20T21:22:48.323Z,21.60
2022-09-20T21:25:15.204Z,21.60
2022-09-20T21:27:42.137Z,21.50
2022-09-20T21:30:09.019Z,21.50
2022-09-20T21:32:36.625Z,21.50
2022-09-20T21:35:03.383Z,21.50
2022-09-20T21:37:30.554Z,21.50
2022-09-20T21:39:57.389Z,21.50
2022-09-20T21:42:25.533Z,21.50
2022-09-20T21:44:53.017Z,21.50
2022-09-20T21:47:20.652Z,21.40
2022-09-20T21:49:47.691Z,21.40
2022-09-20T21:52:14.574Z,21.40
2022-09-20T21:54:46.406Z,21.40
2022-09-20T21:57:13.690Z,21.40
2022-09-20T21:59:40.604Z,21.40
2022-09-20T22:02:07.427Z,21.30
2022-09-20T22:04:34.162Z,21.30
2022-09-20T22:07:04.017Z,21.30
2022-09-20T22:09:30.842Z,21.30
2022-09-20T22:11:57.659Z,21.20
2022-09-20T22:14:24.646Z,21.20
2022-09-20T22:16:51.505Z,21.30
2022-09-20T22:19:18.275Z,21.30
2022-09-20T22:21:46.471Z,21.20
2022-09-20T22:24:14.500Z,21.30
2022-09-20T22:26:42.833Z,21.20
2022-09-20T22:29:09.817Z,21.20
2022-09-20T22:31:38.942Z,21.20
2022-09-20T22:34:07.235Z,21.20
2022-09-20T22:36:35.097Z,21.20
2022-09-20T22:39:02.534Z,21.20
2022-09-20T22:41:29.224Z,21.10
2022-09-20T22:43:56.556Z,21.10
2022-09-20T22:46:24.932Z,21.10
2022-09-20T22:48:51.653Z,21.10
2022-09-20T22:51:19.850Z,21.10
2022-09-20T22:53:47.045Z,21.00
2022-09-20T22:56:14.253Z,21.00
2022-09-20T22:58:42.257Z,20.90
2022-09-20T23:01:10.720Z,21.00
2022-09-20T23:03:38.583Z,21.00
2022-09-20T23:06:11.279Z,20.90
2022-09-20T23:08:38.527Z,20.90
2022-09-20T23:11:05.669Z,21.00
2022-09-20T23:13:32.757Z,21.00
2022-09-20T23:15:59.499Z,20.90
2022-09-20T23:18:26.214Z,20.90
2022-09-20T23:21:02.318Z,20.90
2022-09-20T23:23:29.590Z,20.90
2022-09-20T23:26:03.539Z,20.90
2022-09-20T23:28:30.232Z,20.90
2022-09-20T23:31:01.317Z,20.80
2022-09-20T23:33:28.579Z,20.70
2022-09-20T23:35:55.301Z,20.70
2022-09-20T23:38:22.036Z,20.70
2022-09-20T23:40:48.803Z,20.70
2022-09-20T23:43:15.832Z,20.70
2022-09-20T23:45:42.558Z,20.60
2022-09-20T23:48:09.477Z,20.60
2022-09-20T23:50:36.182Z,20.70
2022-09-20T23:53:02.887Z,20.60
2022-09-20T23:55:29.782Z,20.50
2022-09-20T23:57:59.636Z,20.70
